METAR* REPORTS - Stations within 60 miles

(*Meteorological Terminal Aviation Routine weather report)

 

KRDG - Reading, Pennsylvania, USA
Distance from station: SE 19mi, 31km
Updated: Sun, 27-Nov-2022 12:41pm EST
Heavy rain, Mist, Overcast
Heavy rain, Mist, Overcast
 Wind from calm
Wind: Calm
Temperature: 46°F , 8°C
Dew Point: 45°F , 7°C
Humidity: 93%
Barometer: 29.66 inHg , 1004.4 hPa
Summary: Heavy rain, Mist
Clouds: Overcast
Visibility: 1 1/2 miles , 2.4 km
Cloud details: Mostly Cloudy 800 ft
Overcast 1200 ft
2022/11/27 17:41 KRDG 271741Z 00000KT 1 1/2SM R36/4500VP6000FT +RA BR BKN008 OVC012 08/07 A2966 RMK AO2 P0011 T00830067
KLNS - Lancaster, Pennsylvania, USA
Distance from station: S 33mi, 53km
Updated: Sun, 27-Nov-2022 11:53am EST
Light rain, Mist, Overcast
Light rain, Mist, Overcast
 Wind from ESE
Wind: ESE 6 mph , 9 km/h
Temperature: 46°F , 8°C
Wind Chill: 43°F , 6°C
Dew Point: 45°F , 7°C
Humidity: 93%
Barometer: 29.69 inHg , 1005.4 hPa
Summary: Light rain, Mist
Clouds: Overcast
Visibility: 5 miles , 8 km
Cloud details: Overcast 1600 ft
2022/11/27 16:53 KLNS 271653Z 12005KT 5SM -RA BR OVC016 08/07 A2969 RMK AO2 SLP056 P0005 T00830067
 
KSEG - Selinsgrove, Pennsylvania, USA
Distance from station: WNW 39mi, 62km
Updated: Sun, 27-Nov-2022 11:53am EST
Light rain, Mist, Overcast
Light rain, Mist, Overcast
 Wind from calm
Wind: Calm
Temperature: 43°F , 6°C
Dew Point: 39°F , 4°C
Humidity: 87%
Barometer: 29.67 inHg , 1004.7 hPa
Summary: Light rain, Mist
Clouds: Overcast
Visibility: 5 miles , 8 km
Cloud details: Mostly Cloudy 2400 ft
Mostly Cloudy 3300 ft
Overcast 4900 ft
2022/11/27 16:53 KSEG 271653Z AUTO 00000KT 5SM -RA BR BKN024 BKN033 OVC049 06/04 A2967 RMK AO2 PRESFR SLP051 P0005 T00560044
KABE - Allentown, Pennsylvania, USA
Distance from station: E 39mi, 63km
Updated: Sun, 27-Nov-2022 12:33pm EST
Rain, Mist, Overcast
Rain, Mist, Overcast
 Wind from SE
Wind: SE 3 mph , 6 km/h
Temperature: 45°F , 7°C
Dew Point: 41°F , 5°C
Humidity: 87%
Barometer: 29.69 inHg , 1005.4 hPa
Summary: Rain, Mist
Clouds: Overcast
Visibility: 2 miles , 3 km
Cloud details: Overcast 1600 ft
2022/11/27 17:33 KABE 271733Z 13003KT 2SM RA BR OVC016 07/05 A2969 RMK AO2 P0006 T00720050 $
 
KMDT - Middletown, Pennsylvania, USA
Distance from station: SW 40mi, 65km
Updated: Sun, 27-Nov-2022 12:20pm EST
Light rain, Mist, Overcast
Light rain, Mist, Overcast
 Wind from calm
Wind: Calm
Temperature: 43°F , 6°C
Dew Point: 41°F , 5°C
Humidity: 93%
Barometer: 29.66 inHg , 1004.4 hPa
Summary: Light rain, Mist
Clouds: Overcast
Visibility: 3/4 mile , 1.2 km
Cloud details: Mostly Cloudy 700 ft
Overcast 1000 ft
2022/11/27 17:20 KMDT 271720Z 00000KT 3/4SM R13/5000VP6000FT -RA BR BKN007 OVC010 06/05 A2966 RMK AO2 TWR VIS 3 CIG 006V009 P0003 T00560050 $
KPTW - Pottstown, Pennsylvania, USA
Distance from station: SE 42mi, 67km
Updated: Wed, 16-Nov-2022 6:38am EST
NOT Current
Overcast
Overcast
 Wind from W
Wind: W 5 mph , 7 km/h
Temperature: 37°F , 3°C
Wind Chill: 33°F , 1°C
Dew Point: 37°F , 3°C
Humidity: 100%
Barometer: 29.96 inHg , 1014.6 hPa
Clouds: Overcast
Visibility: 9 miles , 14 km
Cloud details: Partly Cloudy 500 ft
Mostly Cloudy 1600 ft
Overcast 2600 ft
2022/11/16 11:38 KPTW 161138Z AUTO 28004KT 9SM SCT005 BKN016 OVC026 03/03 A2996 RMK AO2 T00280028
 
KCXY - Harrisburg, Pennsylvania, USA
Distance from station: SW 43mi, 69km
Updated: Sun, 27-Nov-2022 12:29pm EST
Light rain, Mist, Overcast
Light rain, Mist, Overcast
 Wind from ESE
Wind: ESE 7 mph , 11 km/h
Temperature: 45°F , 7°C
Wind Chill: 41°F , 5°C
Dew Point: 41°F , 5°C
Humidity: 87%
Barometer: 29.65 inHg , 1004.1 hPa
Summary: Light rain, Mist
Clouds: Overcast
Visibility: 1 1/2 miles , 2.4 km
Cloud details: Mostly Cloudy 1000 ft
Overcast 1400 ft
2022/11/27 17:29 KCXY 271729Z 11006KT 1 1/2SM -RA BR BKN010 OVC014 07/05 A2965 RMK AO2 P0004 T00670050
KUKT - Quakertown Arp, Pennsylvania, USA
Distance from station: ESE 44mi, 70km
Updated: Sun, 27-Nov-2022 12:35pm EST
Mist
Mist
 Wind from SE
Wind: SE 3 mph , 6 km/h
Temperature: 45°F , 7°C
Dew Point: 45°F , 7°C
Humidity: 100%
Barometer: 29.68 inHg , 1005.1 hPa
Summary: Mist
Visibility: 2 miles , 3 km
2022/11/27 17:35 KUKT 271735Z AUTO 13003KT 2SM BR 07/07 A2968 RMK A01 P0002
 
KMQS - Coatesville, Pennsylvania, USA
Distance from station: SSE 45mi, 72km
Updated: Sun, 27-Nov-2022 12:35pm EST
Light drizzle, Overcast
Light drizzle, Overcast
 Wind from S
Wind: S 10 mph , 17 km/h
Temperature: 46°F , 8°C
Wind Chill: 41°F , 5°C
Dew Point: 46°F , 8°C
Humidity: 100%
Barometer: 29.69 inHg , 1005.4 hPa
Summary: Light Drizzle
Clouds: Overcast
Visibility: 3 miles , 5 km
Cloud details: Mostly Cloudy 700 ft
Overcast 1500 ft
2022/11/27 17:35 KMQS 271735Z AUTO 18009KT 160V220 3SM -DZ BKN007 OVC015 08/08 A2969 RMK AO2
KMPO - Mt. Pocono, Pennsylvania, USA
Distance from station: NE 57mi, 92km
Updated: Sun, 27-Nov-2022 12:31pm EST
Light rain, Mist, Overcast
Light rain, Mist, Overcast
 Wind from SSE
Wind: SSE 6 mph , 9 km/h
Temperature: 41°F , 5°C
Wind Chill: 37°F , 3°C
Dew Point: 37°F , 3°C
Humidity: 87%
Barometer: 29.63 inHg , 1003.4 hPa
Summary: Light rain, Mist
Clouds: Overcast
Visibility: 5 miles , 8 km
Cloud details: Overcast 1400 ft
2022/11/27 17:31 KMPO 271731Z AUTO 16005KT 5SM -RA BR OVC014 05/03 A2963 RMK AO2 PRESFR P0001 T00500028 $
 
KAVP - Avoca/Wilkes B., Pennsylvania, USA
Distance from station: NNE 58mi, 93km
Updated: Sun, 27-Nov-2022 12:35pm EST
Light rain, Overcast
Light rain, Overcast
 Wind from SSW
Wind: SSW 5 mph , 7 km/h
Temperature: 45°F , 7°C
Wind Chill: 42°F , 6°C
Dew Point: 39°F , 4°C
Humidity: 81%
Barometer: 29.65 inHg , 1004.1 hPa
Summary: Light Rain
Clouds: Overcast
Visibility: 2 miles , 3 km
Cloud details: Partly Cloudy 2200 ft
Mostly Cloudy 2700 ft
Overcast 5000 ft
2022/11/27 17:35 KAVP 271735Z 20004KT 2SM -RA SCT022 BKN027 OVC050 07/04 A2965 RMK AO2 P0003 T00670039
KTHV - York, Pennsylvania, USA
Distance from station: SW 59mi, 94km
Updated: Sun, 27-Nov-2022 12:28pm EST
Rain, Mist, Overcast
Rain, Mist, Overcast
 Wind from calm
Wind: Calm
Temperature: 46°F , 8°C
Dew Point: 45°F , 7°C
Humidity: 93%
Barometer: 29.65 inHg , 1004.1 hPa
Summary: Rain, Mist
Clouds: Overcast
Visibility: 3 miles , 5 km
Cloud details: Overcast 1400 ft
2022/11/27 17:28 KTHV 271728Z AUTO 00000KT 3SM RA BR OVC014 08/07 A2965 RMK AO2 P0006 T00780067
 
KDYL - Doylestown, Pennsylvania, USA
Distance from station: ESE 59mi, 95km
Updated: Sun, 27-Nov-2022 11:54am EST
Overcast
Overcast
 Wind from SSE
Wind: SSE 3 mph , 6 km/h
Temperature: 48°F , 9°C
Dew Point: 43°F , 6°C
Humidity: 82%
Barometer: 29.74 inHg , 1007.1 hPa
Clouds: Overcast
Visibility: 10 miles , 16 km
Cloud details: Overcast 2400 ft
2022/11/27 16:54 KDYL 271654Z AUTO 16003KT 10SM OVC024 09/06 A2974 RMK AO2 RAB1559E51 SLP074 P0003 T00890056
KIPT - Williamsport, Pennsylvania, USA
Distance from station: NW 60mi, 96km
Updated: Sun, 27-Nov-2022 12:23pm EST
Light rain, Mist, Overcast
Light rain, Mist, Overcast
 Wind from ENE
Wind: ENE 14 mph , 22 km/h
Temperature: 39°F , 4°C
Wind Chill: 31°F , -1°C
Dew Point: 37°F , 3°C
Humidity: 93%
Barometer: 29.62 inHg , 1003 hPa
Summary: Light rain, Mist
Clouds: Overcast
Visibility: 4 miles , 6 km
Cloud details: Mostly Cloudy 1700 ft
Mostly Cloudy 2700 ft
Overcast 3700 ft
2022/11/27 17:23 KIPT 271723Z 06012KT 4SM -RA BR BKN017 BKN027 OVC037 04/03 A2962 RMK AO2 P0002 T00440028